Camp Sherman, OR (97730)

3:40 PM PST on February 06, 2016 (GMT -0800)
Camp Sherman | | Change Station
CLOSE
Current Station
Personal Weather Station
Location: Camp Sherman, OR
Elevation: 3018 ft
Nearby Weather Stations

Elev 3018 ft 44.44 °N, 121.66 °W | Updated 26 seconds ago

Clear
Clear
49.3 °F
Feels Like 49 °F
N
2.0
Wind Variable Wind from North
Gusts 6.0 mph

Today
High -- | Low -- °F
--% Chance of Precip.
Yesterday
High -- | Low -- °F
Precip. -- in
Pressure 30.37 in
Visibility 10.0 miles
Clouds Overcast 11000 ft
Windchill 49 °F
Dew Point 39 °F
Humidity 68%
Rainfall 0.00 in
Snow Depth Not available.
7:19 AM 5:22 PM
Waning Crescent, 3% visible
METAR KRDM 062256Z 00000KT 10SM OVC110 12/01 A3035 RMK AO2 SLP283 T01170006
Pressure 30.37 in
Visibility 10.0 miles
Clouds Overcast 11000 ft
Windchill 49 °F
Dew Point 39 °F
Humidity 68%
Rainfall 0.00 in
Snow Depth Not available.
7:19 AM 5:22 PM
Waning Crescent, 3% visible
METAR KRDM 062256Z 00000KT 10SM OVC110 12/01 A3035 RMK AO2 SLP283 T01170006

10-Day Weather Forecast

Almanac

Astronomy

Feb. 06, 2016 Rise Set
Actual Time
Civil Twilight
Nautical Twilight
Astronomical Twilight
Moon
Length of Visible Light
Length of Day
Tomorrow will be .
, % of the Moon is Illuminated

Today's Extremes

State Highs State Lows

Community

WunderPhotos

Upload Photos

1,891,098 photos uploaded!

WunderBlog® & News

Nearby

Air Quality

  Air Quality AQ Index Pollutant
Not available.

Snow Depth

Station Depth Elevation

Earthquake Activity

City Distance Mag. Time & Date
Minimum magnitude displayed is 2.5.

Coastal Water Temperatures

Place Temperature

Stations

Nearby Weather Stations

Station Location Temp. Windchill Dew Point Humidity Wind Precip. Elev Updated Type
                   

Watches & Warnings

There are currently no watches in effect.